createdAt,value
2017-12-11T00:00:51.881Z,96056.20
2017-12-11T00:02:28.255Z,96040.98
2017-12-11T00:04:04.769Z,96051.48
2017-12-11T00:05:41.255Z,96138.23
2017-12-11T00:07:18.186Z,96228.98
2017-12-11T00:08:54.618Z,96282.16
2017-12-11T00:10:31.885Z,96346.14
2017-12-11T00:12:09.173Z,96352.17
2017-12-11T00:13:45.780Z,96327.07
2017-12-11T00:15:22.752Z,96347.88
2017-12-11T00:17:00.733Z,96392.56
2017-12-11T00:18:38.022Z,96450.03
2017-12-11T00:20:14.544Z,96472.89
2017-12-11T00:21:51.109Z,96488.06
2017-12-11T00:23:27.934Z,96469.92
2017-12-11T00:25:05.245Z,96462.13
2017-12-11T00:26:41.841Z,96352.22
2017-12-11T00:28:18.445Z,96169.34
2017-12-11T00:29:55.103Z,96070.94
2017-12-11T00:31:32.676Z,96073.95
2017-12-11T00:33:10.272Z,96107.17
2017-12-11T00:34:46.844Z,96257.53
2017-12-11T00:36:23.486Z,96286.02
2017-12-11T00:38:00.015Z,96297.71
2017-12-11T00:39:37.587Z,96257.02
2017-12-11T00:41:14.856Z,96088.56
2017-12-11T00:42:51.911Z,96071.31
2017-12-11T00:44:28.647Z,96079.52
2017-12-11T00:46:05.349Z,96102.00
2017-12-11T00:47:42.643Z,96221.26
2017-12-11T00:49:19.385Z,96250.94
2017-12-11T00:50:56.006Z,96361.80
2017-12-11T00:52:32.610Z,96481.24
2017-12-11T00:54:09.941Z,96527.15
2017-12-11T00:55:47.587Z,96476.86
2017-12-11T00:57:24.136Z,96384.73
2017-12-11T00:59:00.556Z,96284.37
2017-12-11T01:00:37.057Z,96374.01
2017-12-11T01:02:14.351Z,96419.47
2017-12-11T01:03:52.122Z,96380.02
2017-12-11T01:05:28.636Z,96522.00
2017-12-11T01:07:06.430Z,96628.22
2017-12-11T01:08:43.301Z,96610.45
2017-12-11T01:10:19.859Z,96656.32
2017-12-11T01:11:56.613Z,96670.05
2017-12-11T01:13:33.185Z,96661.43
2017-12-11T01:15:10.293Z,96631.93
2017-12-11T01:16:47.724Z,96633.34
2017-12-11T01:18:24.230Z,96539.25
2017-12-11T01:20:01.377Z,96322.86
2017-12-11T01:21:38.771Z,96278.84
2017-12-11T01:23:16.129Z,96342.39
2017-12-11T01:24:53.247Z,96363.16
2017-12-11T01:26:30.479Z,96453.57
2017-12-11T01:28:09.295Z,96497.35
2017-12-11T01:29:46.971Z,96582.62
2017-12-11T01:31:23.610Z,96577.89
2017-12-11T01:33:00.137Z,96602.27
2017-12-11T01:34:37.394Z,96667.14
2017-12-11T01:36:14.303Z,96727.88
2017-12-11T01:37:51.534Z,96710.94
2017-12-11T01:39:28.314Z,96723.64
2017-12-11T01:41:04.992Z,96802.09
2017-12-11T01:42:41.620Z,96876.74
2017-12-11T01:44:18.540Z,96861.11
2017-12-11T01:45:56.115Z,96766.08
2017-12-11T01:47:32.750Z,96782.22
2017-12-11T01:49:09.410Z,96697.55
2017-12-11T01:50:45.884Z,96420.31
2017-12-11T01:52:23.589Z,96297.89
2017-12-11T01:54:00.113Z,96391.42
2017-12-11T01:55:36.656Z,96526.86
2017-12-11T01:57:13.833Z,96568.35
2017-12-11T01:58:50.296Z,96547.98
2017-12-11T02:00:29.271Z,96390.95
2017-12-11T02:02:05.767Z,96377.12
2017-12-11T02:03:42.951Z,96411.30
2017-12-11T02:05:20.269Z,96558.51
2017-12-11T02:06:56.887Z,96563.28
2017-12-11T02:08:34.485Z,96548.87
2017-12-11T02:10:11.763Z,96530.69
2017-12-11T02:11:49.290Z,96618.25
2017-12-11T02:13:25.934Z,96671.06
2017-12-11T02:15:03.113Z,96710.98
2017-12-11T02:16:40.268Z,96665.06
2017-12-11T02:18:17.539Z,96593.20
2017-12-11T02:19:54.183Z,96651.62
2017-12-11T02:21:32.609Z,96593.96
2017-12-11T02:23:09.601Z,96592.73
2017-12-11T02:24:47.391Z,96477.38
2017-12-11T02:26:24.355Z,96352.86
2017-12-11T02:28:01.940Z,96499.14
2017-12-11T02:29:39.066Z,96524.64
2017-12-11T02:31:17.072Z,96545.34
2017-12-11T02:32:54.256Z,96526.34
2017-12-11T02:34:30.899Z,96554.59
2017-12-11T02:36:08.410Z,96651.67
2017-12-11T02:37:47.295Z,96681.05
2017-12-11T02:39:24.754Z,96737.80
2017-12-11T02:41:01.771Z,96667.14
2017-12-11T02:42:38.988Z,96403.85
2017-12-11T02:44:15.783Z,96216.92
2017-12-11T02:45:53.192Z,96201.97
2017-12-11T02:47:29.995Z,96373.63
2017-12-11T02:49:07.028Z,96426.75
2017-12-11T02:50:43.520Z,96537.59
2017-12-11T02:52:20.791Z,96541.47
2017-12-11T02:53:57.499Z,96265.40
2017-12-11T02:55:34.723Z,96058.41
2017-12-11T02:57:11.664Z,95936.34
2017-12-11T02:58:48.674Z,95888.95
2017-12-11T03:00:26.866Z,95928.53
2017-12-11T03:03:44.838Z,96102.47
2017-12-11T03:05:21.573Z,96218.24
2017-12-11T03:06:59.265Z,96342.34
2017-12-11T03:08:36.209Z,96420.66
2017-12-11T03:10:12.838Z,96453.09
2017-12-11T03:11:49.393Z,96272.70
2017-12-11T03:13:26.634Z,96101.58
2017-12-11T03:15:06.175Z,96134.46
2017-12-11T03:16:43.890Z,96218.84
2017-12-11T03:18:20.460Z,96376.48
2017-12-11T03:19:58.572Z,96425.86
2017-12-11T03:21:36.212Z,96296.06
2017-12-11T03:23:12.641Z,96178.96
2017-12-11T03:24:49.221Z,96022.14
2017-12-11T03:26:25.783Z,95923.36
2017-12-11T03:28:03.542Z,95873.41
2017-12-11T03:29:40.126Z,95944.92
2017-12-11T03:31:20.789Z,96030.84
2017-12-11T03:32:58.526Z,95970.77
2017-12-11T03:34:35.450Z,95885.05
2017-12-11T03:36:12.733Z,95869.05
2017-12-11T03:37:49.928Z,95890.69
2017-12-11T03:39:27.079Z,96052.42
2017-12-11T03:41:04.118Z,96223.00
2017-12-11T03:42:41.409Z,96396.91
2017-12-11T03:44:17.920Z,96468.17
2017-12-11T03:45:54.411Z,96414.02
2017-12-11T03:47:30.871Z,96358.30
2017-12-11T03:49:07.923Z,96222.48
2017-12-11T03:50:46.259Z,96198.34
2017-12-11T03:52:23.806Z,96193.20
2017-12-11T03:54:00.787Z,96250.20
2017-12-11T03:55:37.411Z,96252.38
2017-12-11T03:57:13.984Z,96202.67
2017-12-11T03:58:50.563Z,96064.02
2017-12-11T04:00:28.456Z,95914.27
2017-12-11T04:02:05.599Z,95866.93
2017-12-11T04:03:42.296Z,95927.55
2017-12-11T04:05:18.820Z,96017.38
2017-12-11T04:06:55.769Z,96184.56
2017-12-11T04:08:33.082Z,96143.38
2017-12-11T04:10:09.657Z,96254.12
2017-12-11T04:11:46.202Z,96293.80
2017-12-11T04:13:23.943Z,96288.19
2017-12-11T04:15:02.737Z,96248.00
2017-12-11T04:16:39.685Z,96185.19
2017-12-11T04:18:16.064Z,96170.67
2017-12-11T04:19:53.049Z,96082.06
2017-12-11T04:21:29.450Z,96015.17
2017-12-11T04:23:06.602Z,95908.57
2017-12-11T04:24:43.839Z,95884.05
2017-12-11T04:26:21.381Z,95883.54
2017-12-11T04:27:59.528Z,95817.20
2017-12-11T04:29:36.000Z,95855.97
2017-12-11T04:31:13.097Z,95849.43
2017-12-11T04:32:49.888Z,95940.45
2017-12-11T04:34:26.311Z,95888.34
2017-12-11T04:36:02.731Z,95764.58
2017-12-11T04:37:39.218Z,95713.28
2017-12-11T04:39:16.088Z,95744.30
2017-12-11T04:40:52.574Z,95763.73
2017-12-11T04:42:29.059Z,95793.91
2017-12-11T04:44:05.575Z,95760.11
2017-12-11T04:45:43.297Z,95686.02
2017-12-11T04:47:20.508Z,95659.61
2017-12-11T04:48:57.054Z,95634.36
2017-12-11T04:50:33.475Z,95671.39
2017-12-11T04:52:10.428Z,95686.54
2017-12-11T04:53:47.729Z,95693.86
2017-12-11T04:55:25.324Z,95587.91
2017-12-11T04:57:02.663Z,95358.52
2017-12-11T04:58:39.722Z,95406.33
2017-12-11T05:00:18.544Z,95402.81
2017-12-11T05:01:55.073Z,95445.47
2017-12-11T05:03:32.403Z,95432.48
2017-12-11T05:05:09.855Z,95290.62
2017-12-11T05:06:46.384Z,95282.89
2017-12-11T05:08:23.028Z,95232.64
2017-12-11T05:09:59.525Z,95203.91
2017-12-11T05:11:38.691Z,95168.26
2017-12-11T05:13:15.334Z,94931.05
2017-12-11T05:14:52.617Z,94813.69
2017-12-11T05:16:29.081Z,94759.69
2017-12-11T05:18:06.795Z,94931.52
2017-12-11T05:19:43.344Z,95012.41
2017-12-11T05:21:19.910Z,94933.20
2017-12-11T05:22:56.417Z,94950.27
2017-12-11T05:24:33.247Z,94781.98
2017-12-11T05:26:10.215Z,94766.52
2017-12-11T05:27:47.687Z,94845.80
2017-12-11T05:29:24.202Z,94939.98
2017-12-11T05:31:01.227Z,94873.05
2017-12-11T05:32:37.777Z,94823.77
2017-12-11T05:34:14.307Z,94771.19
2017-12-11T05:35:51.746Z,94782.41
2017-12-11T05:37:28.698Z,94752.41
2017-12-11T05:39:06.720Z,94903.06
2017-12-11T05:40:43.269Z,94972.54
2017-12-11T05:42:19.714Z,94801.66
2017-12-11T05:43:56.723Z,94843.22
2017-12-11T05:45:33.199Z,94919.41
2017-12-11T05:47:09.645Z,94811.43
2017-12-11T05:48:46.568Z,94861.07
2017-12-11T05:50:23.404Z,94828.63
2017-12-11T05:51:59.998Z,94799.41
2017-12-11T05:53:38.291Z,94793.02
2017-12-11T05:55:15.507Z,94822.17
2017-12-11T05:56:53.106Z,94837.56
2017-12-11T05:58:30.373Z,94942.55
2017-12-11T06:00:09.801Z,94832.47
2017-12-11T06:01:48.262Z,94813.16
2017-12-11T06:03:25.027Z,94826.76
2017-12-11T06:05:01.406Z,94815.31
2017-12-11T06:06:37.836Z,94731.84
2017-12-11T06:08:14.400Z,94661.17
2017-12-11T06:09:53.141Z,94752.25
2017-12-11T06:11:29.694Z,94784.78
2017-12-11T06:13:06.243Z,94819.98
2017-12-11T06:14:42.738Z,94731.80
2017-12-11T06:16:20.419Z,94749.54
2017-12-11T06:17:57.715Z,94731.32
2017-12-11T06:19:34.184Z,94783.16
2017-12-11T06:21:10.581Z,94730.70
2017-12-11T06:22:49.264Z,94735.59
2017-12-11T06:24:25.743Z,94686.38
2017-12-11T06:26:02.183Z,94586.70
2017-12-11T06:27:38.698Z,94592.67
2017-12-11T06:29:15.373Z,94685.55
2017-12-11T06:30:51.893Z,94651.22
2017-12-11T06:32:28.341Z,94590.42
2017-12-11T06:34:04.846Z,94575.64
2017-12-11T06:35:41.783Z,94548.55
2017-12-11T06:37:18.398Z,94533.20
2017-12-11T06:38:54.905Z,94540.08
2017-12-11T06:40:31.335Z,94597.75
2017-12-11T06:42:09.003Z,94606.77
2017-12-11T06:43:45.472Z,94668.36
2017-12-11T06:45:22.023Z,94652.42
2017-12-11T06:46:59.149Z,94745.70
2017-12-11T06:48:37.817Z,94759.50
2017-12-11T06:50:14.312Z,94857.14
2017-12-11T06:51:51.622Z,94930.65
2017-12-11T06:53:28.141Z,94885.70
2017-12-11T06:55:05.846Z,94775.97
2017-12-11T06:56:43.048Z,94720.95
2017-12-11T06:58:20.375Z,94690.59
2017-12-11T06:59:56.908Z,94619.46
2017-12-11T07:01:34.964Z,94634.66
2017-12-11T07:03:12.202Z,94618.77
2017-12-11T07:04:49.839Z,94678.58
2017-12-11T07:06:26.521Z,94600.23
2017-12-11T07:08:05.813Z,94694.78
2017-12-11T07:09:42.358Z,94666.16
2017-12-11T07:11:18.940Z,94563.97
2017-12-11T07:12:55.441Z,94594.71
2017-12-11T07:14:31.870Z,94579.73
2017-12-11T07:16:08.304Z,94580.16
2017-12-11T07:17:47.544Z,94590.53
2017-12-11T07:19:28.185Z,94608.39
2017-12-11T07:21:05.247Z,94584.09
2017-12-11T07:22:42.619Z,94602.06
2017-12-11T07:24:19.082Z,94564.44
2017-12-11T07:25:55.510Z,94567.84
2017-12-11T07:27:32.240Z,94685.83
2017-12-11T07:29:08.674Z,94677.73
2017-12-11T07:30:45.113Z,94664.80
2017-12-11T07:32:21.533Z,94657.13
2017-12-11T07:33:59.716Z,94675.12
2017-12-11T07:35:37.559Z,94746.11
2017-12-11T07:37:27.912Z,94807.81
2017-12-11T07:39:05.352Z,94776.13
2017-12-11T07:40:43.988Z,94787.66
2017-12-11T07:42:22.889Z,94791.07
2017-12-11T07:44:00.140Z,94808.28
2017-12-11T07:45:37.303Z,94868.64
2017-12-11T07:47:14.083Z,94851.47
2017-12-11T07:48:50.577Z,94814.68
2017-12-11T07:50:27.145Z,94817.30
2017-12-11T07:52:03.559Z,94898.08
2017-12-11T07:53:40.595Z,94859.94
2017-12-11T07:55:17.046Z,94928.08
2017-12-11T07:56:54.248Z,94911.48
2017-12-11T07:58:30.691Z,94887.02
2017-12-11T08:00:07.998Z,94846.81
2017-12-11T08:01:45.499Z,94793.69
2017-12-11T08:03:22.886Z,94944.78
2017-12-11T08:04:59.341Z,94981.69
2017-12-11T08:06:36.130Z,95059.77
2017-12-11T08:08:12.655Z,95044.38
2017-12-11T08:09:49.984Z,94951.70
2017-12-11T08:11:26.480Z,94903.24
2017-12-11T08:13:04.008Z,94930.28
2017-12-11T08:14:40.577Z,94908.02
2017-12-11T08:16:17.493Z,94860.83
2017-12-11T08:17:54.222Z,94818.05
2017-12-11T08:19:31.394Z,94859.70
2017-12-11T08:21:07.834Z,94868.59
2017-12-11T08:22:45.224Z,94816.74
2017-12-11T08:24:21.653Z,94824.92
2017-12-11T08:25:58.495Z,94858.87
2017-12-11T08:27:35.002Z,94824.98
2017-12-11T08:29:12.267Z,94832.68
2017-12-11T08:30:48.783Z,94829.59
2017-12-11T08:32:25.608Z,94792.72
2017-12-11T08:34:02.150Z,94750.33
2017-12-11T08:35:38.603Z,94772.28
2017-12-11T08:37:15.077Z,94739.72
2017-12-11T08:40:28.009Z,94934.06
2017-12-11T08:42:04.499Z,94899.45
2017-12-11T08:43:41.057Z,94766.63
2017-12-11T08:45:20.819Z,94745.61
2017-12-11T08:46:57.234Z,94719.27
2017-12-11T08:48:33.795Z,94680.78
2017-12-11T08:50:11.141Z,94665.69
2017-12-11T08:51:48.815Z,94781.69
2017-12-11T08:53:25.250Z,94798.27
2017-12-11T08:55:01.685Z,94773.82
2017-12-11T08:56:38.929Z,94771.87
2017-12-11T08:58:17.369Z,94826.59
2017-12-11T08:59:54.600Z,94784.62
2017-12-11T09:01:31.570Z,94852.73
2017-12-11T09:03:07.967Z,94737.88
2017-12-11T09:04:45.720Z,94621.14
2017-12-11T09:06:22.223Z,94622.45
2017-12-11T09:07:58.652Z,94608.34
2017-12-11T09:09:35.871Z,94644.30
2017-12-11T09:11:12.814Z,94666.16
2017-12-11T09:12:49.323Z,94711.41
2017-12-11T09:14:26.592Z,94741.34
2017-12-11T09:16:04.143Z,94668.98
2017-12-11T09:17:41.661Z,94645.56
2017-12-11T09:19:20.109Z,94682.81
2017-12-11T09:20:57.368Z,94675.12
2017-12-11T09:22:33.917Z,94619.46
2017-12-11T09:24:11.110Z,94615.62
2017-12-11T09:25:47.903Z,94637.89
2017-12-11T09:27:24.530Z,94656.23
2017-12-11T09:29:01.817Z,94640.93
2017-12-11T09:30:39.467Z,94634.86
2017-12-11T09:32:15.898Z,94657.50
2017-12-11T09:33:52.390Z,94635.19
2017-12-11T09:35:29.716Z,94695.62
2017-12-11T09:37:07.005Z,94720.00
2017-12-11T09:38:43.805Z,94811.58
2017-12-11T09:40:21.077Z,94843.71
2017-12-11T09:41:57.640Z,94731.97
2017-12-11T09:43:34.128Z,94756.77
2017-12-11T09:45:11.700Z,94757.14
2017-12-11T09:46:50.252Z,94670.41
2017-12-11T09:48:28.060Z,94637.39
2017-12-11T09:50:06.184Z,94641.68
2017-12-11T09:51:43.269Z,94744.80
2017-12-11T09:53:19.694Z,94749.02
2017-12-11T09:54:56.210Z,94770.47
2017-12-11T09:56:32.675Z,94775.19
2017-12-11T09:58:09.659Z,94807.28
2017-12-11T09:59:47.145Z,94888.64
2017-12-11T10:01:23.940Z,94816.16
2017-12-11T10:03:01.284Z,94715.28
2017-12-11T10:04:38.225Z,94775.66
2017-12-11T10:06:14.656Z,94893.31
2017-12-11T10:07:52.180Z,94879.25
2017-12-11T10:09:28.678Z,94804.34
2017-12-11T10:11:06.150Z,94824.87
2017-12-11T10:12:43.408Z,94934.58
2017-12-11T10:14:20.808Z,94834.78
2017-12-11T10:15:57.374Z,94830.53
2017-12-11T10:17:35.714Z,94886.55
2017-12-11T10:19:12.362Z,94922.46
2017-12-11T10:20:48.767Z,94953.33
2017-12-11T10:22:25.147Z,94977.86
2017-12-11T10:24:02.407Z,94847.64
2017-12-11T10:25:38.924Z,94908.02
2017-12-11T10:27:16.145Z,94988.91
2017-12-11T10:28:52.778Z,94941.45
2017-12-11T10:30:30.332Z,94975.23
2017-12-11T10:32:07.481Z,94926.30
2017-12-11T10:33:45.242Z,94928.97
2017-12-11T10:35:22.529Z,94956.33
2017-12-11T10:37:00.670Z,94935.47
2017-12-11T10:38:37.139Z,94899.25
2017-12-11T10:40:13.604Z,94874.56
2017-12-11T10:41:50.358Z,94835.06
2017-12-11T10:43:28.039Z,94791.82
2017-12-11T10:45:05.260Z,94770.47
2017-12-11T10:46:42.185Z,94769.66
2017-12-11T10:48:19.374Z,94786.41
2017-12-11T10:49:56.060Z,94815.52
2017-12-11T10:51:32.606Z,94787.19
2017-12-11T10:53:09.252Z,94830.48
2017-12-11T10:54:45.873Z,94851.84
2017-12-11T10:56:22.514Z,94850.05
2017-12-11T10:57:59.498Z,94726.72
2017-12-11T10:59:35.931Z,94679.27
2017-12-11T11:01:12.460Z,94722.90
2017-12-11T11:02:49.805Z,94773.82
2017-12-11T11:04:26.412Z,94732.86
2017-12-11T11:06:04.035Z,94772.63
2017-12-11T11:07:42.412Z,94738.30
2017-12-11T11:09:19.055Z,94761.85
2017-12-11T11:10:56.547Z,94783.78
2017-12-11T11:12:33.293Z,94767.05
2017-12-11T11:14:09.716Z,94748.96
2017-12-11T11:15:46.133Z,94714.86
2017-12-11T11:17:23.107Z,94697.34
2017-12-11T11:18:59.504Z,94596.35
2017-12-11T11:20:36.083Z,94601.95
2017-12-11T11:22:12.697Z,94597.24
2017-12-11T11:23:49.734Z,94609.39
2017-12-11T11:25:26.291Z,94572.97
2017-12-11T11:27:03.488Z,94639.62
2017-12-11T11:28:40.142Z,94782.47
2017-12-11T11:30:19.643Z,94731.12
2017-12-11T11:31:56.218Z,94625.95
2017-12-11T11:33:32.932Z,94567.37
2017-12-11T11:35:10.443Z,94503.62
2017-12-11T13:32:45.141Z,95076.21
2017-12-11T13:34:22.346Z,95068.91
2017-12-11T13:35:58.867Z,95053.50
2017-12-11T13:37:38.805Z,95089.47
2017-12-11T13:39:17.204Z,95190.93
2017-12-11T13:40:53.809Z,95168.20
2017-12-11T13:42:30.504Z,95176.83
2017-12-11T13:44:10.229Z,95218.80
2017-12-11T13:45:47.700Z,95215.33
2017-12-11T13:47:25.672Z,95173.73
2017-12-11T13:49:02.229Z,95104.59
2017-12-11T13:50:39.006Z,95035.48
2017-12-11T13:52:16.223Z,95039.41
2017-12-11T13:53:52.670Z,95067.73
2017-12-11T13:55:31.012Z,95063.80
2017-12-11T13:57:09.989Z,95064.61
2017-12-11T13:58:47.340Z,95055.30
2017-12-11T14:00:26.342Z,95036.38
2017-12-11T14:02:06.188Z,95049.67
2017-12-11T14:03:45.948Z,95063.72
2017-12-11T14:05:24.403Z,95110.16
2017-12-11T14:07:00.893Z,95201.09
2017-12-11T14:08:43.691Z,95309.09
2017-12-11T14:10:23.394Z,95501.70
2017-12-11T14:12:00.240Z,95587.43
2017-12-11T14:13:37.864Z,95740.26
2017-12-11T14:15:16.162Z,95767.44
2017-12-11T14:16:53.112Z,95727.72
2017-12-11T14:18:30.107Z,95770.59
2017-12-11T14:20:08.855Z,95825.63
2017-12-11T14:21:47.442Z,95824.41
2017-12-11T14:23:24.847Z,95768.00
2017-12-11T14:25:01.367Z,95762.36
2017-12-11T14:26:37.848Z,95726.58
2017-12-11T14:28:14.277Z,95776.70
2017-12-11T14:29:51.502Z,95857.61
2017-12-11T14:31:28.211Z,95939.88
2017-12-11T14:33:05.716Z,95954.58
2017-12-11T14:34:43.024Z,95915.83
2017-12-11T14:36:20.596Z,95975.77
2017-12-11T14:37:57.559Z,96004.72
2017-12-11T14:39:34.979Z,96173.21
2017-12-11T14:41:11.734Z,96136.48
2017-12-11T14:42:48.571Z,96199.61
2017-12-11T14:44:25.362Z,96287.81
2017-12-11T14:46:02.187Z,96336.69
2017-12-11T14:47:39.106Z,96308.09
2017-12-11T14:49:16.006Z,96263.09
2017-12-11T14:50:53.106Z,96199.98
2017-12-11T14:52:30.435Z,96191.41
2017-12-11T14:54:07.967Z,96099.31
2017-12-11T14:55:46.322Z,96031.05
2017-12-11T14:57:27.267Z,96057.94
2017-12-11T14:59:07.155Z,96132.72
2017-12-11T15:00:45.093Z,96119.16
2017-12-11T15:02:21.837Z,96041.88
2017-12-11T15:03:58.716Z,96016.39
2017-12-11T15:05:37.447Z,96007.48
2017-12-11T15:07:14.214Z,95976.79
2017-12-11T15:08:51.035Z,95951.22
2017-12-11T15:10:29.027Z,95886.17
2017-12-11T15:12:06.311Z,95847.87
2017-12-11T15:13:43.015Z,95862.50
2017-12-11T15:15:21.188Z,95884.43
2017-12-11T15:17:04.877Z,95980.64
2017-12-11T15:18:42.709Z,96159.81
2017-12-11T15:20:19.355Z,96378.65
2017-12-11T15:21:57.942Z,96498.45
2017-12-11T15:23:34.566Z,96583.34
2017-12-11T15:25:11.548Z,96627.50
2017-12-11T15:26:49.096Z,96696.86
2017-12-11T15:28:27.235Z,96759.42
2017-12-11T15:30:03.872Z,96803.25
2017-12-11T15:31:41.087Z,96831.06
2017-12-11T15:33:18.653Z,96804.61
2017-12-11T15:34:59.485Z,96757.77
2017-12-11T15:36:38.496Z,96681.86
2017-12-11T15:38:19.751Z,96624.61
2017-12-11T15:40:00.953Z,96584.75
2017-12-11T15:41:39.473Z,96566.98
2017-12-11T15:43:19.191Z,96548.79
2017-12-11T15:44:57.160Z,96543.64
2017-12-11T15:46:38.432Z,96531.41
2017-12-11T15:48:17.398Z,96531.96
2017-12-11T15:49:54.975Z,96528.89
2017-12-11T15:51:32.400Z,96530.14
2017-12-11T15:53:10.424Z,96536.66
2017-12-11T15:54:48.171Z,96538.45
2017-12-11T15:56:25.241Z,96530.14
2017-12-11T15:58:03.216Z,96575.77
2017-12-11T15:59:43.125Z,96603.85
2017-12-11T16:01:22.192Z,96616.08
2017-12-11T16:03:00.192Z,96627.33
2017-12-11T16:04:38.113Z,96676.78
2017-12-11T16:06:15.928Z,96733.97
2017-12-11T16:07:54.142Z,96740.49
2017-12-11T16:09:32.815Z,96740.06
2017-12-11T16:11:11.211Z,96748.30
2017-12-11T16:12:49.333Z,96770.48
2017-12-11T16:14:26.693Z,96836.06
2017-12-11T16:16:05.268Z,96875.97
2017-12-11T16:17:42.137Z,96837.30
2017-12-11T16:19:19.794Z,96833.84
2017-12-11T16:20:58.135Z,96799.62
2017-12-11T16:22:37.291Z,96766.17
2017-12-11T16:24:15.003Z,96723.09
2017-12-11T16:25:53.832Z,96710.09
2017-12-11T16:27:33.389Z,96820.32
2017-12-11T16:29:13.486Z,96929.81
2017-12-11T16:30:54.414Z,97011.52
2017-12-11T16:32:33.179Z,96994.90
2017-12-11T16:34:11.582Z,96928.44
2017-12-11T16:35:49.987Z,96912.00
2017-12-11T16:37:28.171Z,96904.15
2017-12-11T16:39:09.310Z,96926.31
2017-12-11T16:40:47.512Z,96940.31
2017-12-11T16:42:24.314Z,96994.56
2017-12-11T16:44:03.219Z,97080.66
2017-12-11T16:45:42.208Z,97036.22
2017-12-11T16:47:20.026Z,96986.66
2017-12-11T16:48:58.456Z,96938.13
2017-12-11T16:50:36.258Z,96902.44
2017-12-11T16:52:13.992Z,96908.55
2017-12-11T16:53:51.968Z,96943.86
2017-12-11T16:55:30.241Z,96951.55
2017-12-11T16:57:09.083Z,96911.15
2017-12-11T16:58:46.895Z,96902.02
2017-12-11T17:00:29.629Z,96945.06
2017-12-11T17:02:08.148Z,96986.82
2017-12-11T17:03:48.588Z,96948.60
2017-12-11T17:05:29.326Z,96917.30
2017-12-11T17:07:10.552Z,96908.97
2017-12-11T17:08:52.240Z,96887.75
2017-12-11T17:10:30.851Z,96882.55
2017-12-11T17:12:11.521Z,96864.66
2017-12-11T17:13:52.663Z,96866.49
2017-12-11T17:15:34.198Z,96846.87
2017-12-11T17:17:14.029Z,96845.23
2017-12-11T17:18:54.832Z,96830.05
2017-12-11T17:20:35.634Z,96820.95
2017-12-11T17:22:13.988Z,96834.45
2017-12-11T17:23:53.259Z,96827.05
2017-12-11T17:25:36.611Z,96837.00
2017-12-11T17:27:22.169Z,96842.63
2017-12-11T17:29:04.786Z,96835.77
2017-12-11T17:30:51.142Z,96819.25
2017-12-11T17:32:32.654Z,96854.03
2017-12-11T17:34:13.109Z,96859.07
2017-12-11T17:35:51.919Z,96877.81
2017-12-11T17:37:33.614Z,96888.73
2017-12-11T17:39:11.945Z,96942.62
2017-12-11T17:40:54.343Z,96958.67
2017-12-11T17:42:34.955Z,96996.00
2017-12-11T17:44:16.659Z,97036.84
2017-12-11T17:45:58.659Z,97044.20
2017-12-11T17:47:51.530Z,97008.14
2017-12-11T17:49:30.688Z,96956.38
2017-12-11T17:51:10.953Z,96963.38
2017-12-11T17:52:52.440Z,96990.41
2017-12-11T17:54:31.677Z,97005.11
2017-12-11T17:56:13.889Z,97014.55
2017-12-11T17:57:56.456Z,97018.13
2017-12-11T17:59:36.070Z,97019.45
2017-12-11T18:01:16.612Z,97020.78
2017-12-11T18:02:59.823Z,97004.25
2017-12-11T18:04:39.081Z,96986.48
2017-12-11T18:06:21.794Z,96961.23
2017-12-11T18:08:03.321Z,96967.05
2017-12-11T18:09:46.283Z,96943.09
2017-12-11T18:11:26.430Z,96980.42
2017-12-11T18:13:04.443Z,96960.00
2017-12-11T18:14:45.038Z,96995.08
2017-12-11T18:16:24.554Z,97081.20
2017-12-11T18:18:07.541Z,97082.11
2017-12-11T18:19:52.592Z,97150.29
2017-12-11T18:21:34.203Z,97353.58
2017-12-11T18:23:19.914Z,97536.52
2017-12-11T18:25:02.366Z,97655.96
2017-12-11T18:26:40.582Z,97671.16
2017-12-11T18:28:29.227Z,97774.67
2017-12-11T18:30:08.986Z,97855.42
2017-12-11T18:31:52.979Z,97922.82
2017-12-11T18:33:35.247Z,97957.71
2017-12-11T18:35:15.739Z,97969.13
2017-12-11T18:37:03.539Z,97920.16
2017-12-11T18:38:42.576Z,97857.14
2017-12-11T18:40:25.245Z,97779.41
2017-12-11T18:42:06.023Z,97775.22
2017-12-11T18:43:44.977Z,97809.65
2017-12-11T18:45:26.383Z,97849.86
2017-12-11T18:47:10.230Z,97876.06
2017-12-11T18:48:54.292Z,97835.37
2017-12-11T18:50:36.781Z,97845.53
2017-12-11T18:52:25.466Z,97876.53
2017-12-11T18:54:05.194Z,97873.83
2017-12-11T18:55:47.767Z,97889.98
2017-12-11T18:57:29.669Z,97899.20
2017-12-11T18:59:14.569Z,97880.00
2017-12-11T19:00:57.567Z,97890.02
2017-12-11T19:02:41.350Z,97911.52
2017-12-11T19:04:26.024Z,97960.45
2017-12-11T19:06:07.094Z,97980.98
2017-12-11T19:07:49.954Z,97970.06
2017-12-11T19:11:14.199Z,97919.88
2017-12-11T19:12:57.340Z,97893.58
2017-12-11T19:14:39.605Z,97915.08
2017-12-11T19:16:27.632Z,97923.37
2017-12-11T19:18:11.710Z,97938.23
2017-12-11T19:19:56.716Z,97873.48
2017-12-11T19:21:38.024Z,97970.11
2017-12-11T19:23:20.430Z,97977.14
2017-12-11T19:25:01.545Z,97959.66
2017-12-11T19:26:48.458Z,97948.70
2017-12-11T19:28:27.849Z,97967.95
2017-12-11T19:30:08.829Z,97952.66
2017-12-11T19:31:50.725Z,97882.70
2017-12-11T19:33:33.216Z,97862.17
2017-12-11T19:35:20.948Z,97865.66
2017-12-11T19:37:02.856Z,97842.48
2017-12-11T19:38:44.145Z,97855.69
2017-12-11T19:40:27.162Z,97846.46
2017-12-11T19:42:07.182Z,97869.56
2017-12-11T19:43:49.254Z,97920.39
2017-12-11T19:45:34.060Z,97919.45
2017-12-11T19:47:24.980Z,97927.74
2017-12-11T19:49:12.035Z,97941.31
2017-12-11T19:50:58.900Z,97952.70
2017-12-11T19:52:38.923Z,97983.28
2017-12-11T19:54:22.122Z,97983.17
2017-12-11T19:56:05.004Z,97924.66
2017-12-11T19:57:46.834Z,97961.77
2017-12-11T19:59:29.644Z,98010.33
2017-12-11T20:01:12.526Z,98009.89
2017-12-11T20:03:01.312Z,97994.16
2017-12-11T20:04:44.862Z,97978.87
2017-12-11T20:06:25.356Z,97967.56
2017-12-11T20:08:05.297Z,98008.20
2017-12-11T20:09:46.866Z,97910.77
2017-12-11T20:11:29.926Z,97836.02
2017-12-11T20:13:13.494Z,97846.07
2017-12-11T20:14:58.591Z,97927.39
2017-12-11T20:16:43.224Z,97972.38
2017-12-11T20:18:30.741Z,98022.61
2017-12-11T20:20:15.451Z,98010.87
2017-12-11T20:22:00.080Z,98049.77
2017-12-11T20:23:48.949Z,98026.13
2017-12-11T20:25:30.345Z,98047.53
2017-12-11T20:27:15.297Z,98024.77
2017-12-11T20:28:55.927Z,97973.23
2017-12-11T20:30:41.052Z,97937.80
2017-12-11T20:32:25.406Z,97892.79
2017-12-11T20:34:09.367Z,97886.22
2017-12-11T20:35:53.497Z,97954.03
2017-12-11T20:37:35.217Z,97926.53
2017-12-11T20:39:15.116Z,98011.66
2017-12-11T20:41:02.596Z,98064.17
2017-12-11T20:42:45.280Z,98039.20
2017-12-11T20:44:26.311Z,98076.38
2017-12-11T20:46:05.739Z,98105.31
2017-12-11T20:47:48.264Z,98067.66
2017-12-11T20:49:30.550Z,98096.55
2017-12-11T20:51:11.306Z,98070.67
2017-12-11T20:52:53.493Z,98068.05
2017-12-11T20:54:41.451Z,98126.73
2017-12-11T20:56:24.016Z,98173.09
2017-12-11T20:58:16.473Z,98186.18
2017-12-11T20:59:59.404Z,98223.42
2017-12-11T21:01:42.319Z,98247.05
2017-12-11T21:03:28.075Z,98258.45
2017-12-11T21:05:12.545Z,98276.33
2017-12-11T21:06:54.126Z,98289.06
2017-12-11T21:08:42.782Z,98203.69
2017-12-11T21:10:21.987Z,98177.98
2017-12-11T21:12:04.916Z,98164.36
2017-12-11T21:13:46.140Z,98212.50
2017-12-11T21:15:30.268Z,98279.89
2017-12-11T21:17:11.488Z,98325.37